• Join FlightAware (Why Join?)
  • Login
  • US Flag 
05:10AM EDT


 

Airport Tracker/Info


-or-


 

Live Flight TrackerFlight Track Log ✈ GLA194 ✈ 22-Jun-2013 ✈ KIWD - KMSP

Flight Track Log - Related Links

Times and Time Zones

All times are in EDT time to prevent confusion due to time zone crossing. See the GLA194 flight status page for this flight to view local times or setup timezone preferences in your user account.

Time Position Orientation Groundspeed Altitude Reporting Facility
EDT Latitude Longitude Course Direction KTS MPH feet Rate Location/Type
10:49AM 46.4825 -90.0939 207° Southwest 175 201 5,700  Level Minneapolis Center
10:50AM 46.4550 -90.1703 242° Southwest 181 208 8,400 2,520 Climbing Minneapolis Center
10:51AM 46.4158 -90.2322 227° Southwest 176 203 11,000 2,100 Climbing Minneapolis Center
10:52AM 46.3736 -90.2633 207° Southwest 173 199 12,800 1,800 Climbing Minneapolis Center
10:53AM 46.3308 -90.2944 207° Southwest 173 199 14,700 1,620 Climbing Minneapolis Center
10:54AM 46.2994 -90.3186 208° Southwest 167 192 16,200 720 Climbing Minneapolis Center
10:55AM 46.2506 -90.3694 216° Southwest 178 205 16,200  Level Minneapolis Center
10:56AM 46.2025 -90.4192 216° Southwest 202 232 16,200  Level Minneapolis Center
10:57AM 46.1486 -90.4636 210° Southwest 217 250 16,200  Level Minneapolis Center
10:58AM 46.0833 -90.5172 210° Southwest 224 258 16,200 -60 Level Minneapolis Center
10:59AM 46.0175 -90.5717 210° Southwest 227 261 16,100  Descending Minneapolis Center
11:00AM 45.9633 -90.6181 211° Southwest 228 262 16,200 -60 Climbing Minneapolis Center
11:01AM 45.9078 -90.6658 211° Southwest 230 265 16,000 -120 Descending Minneapolis Center
11:02AM 45.8533 -90.7144 212° Southwest 230 265 16,000  Level Minneapolis Center
11:04AM 45.7892 -90.7714 212° Southwest 227 261 16,000  Level Minneapolis Center
11:05AM 45.7394 -90.8272 218° Southwest 230 265 16,000  Level Minneapolis Center
11:06AM 45.7044 -90.8994 235° Southwest 223 257 16,000  Level Minneapolis Center
11:07AM 45.6650 -90.9708 232° Southwest 228 262 16,100 -60 Climbing Minneapolis Center
11:08AM 45.6253 -91.0386 230° Southwest 225 259 15,900 -60 Descending Minneapolis Center
11:09AM 45.5858 -91.1094 232° Southwest 227 261 16,000  Climbing Minneapolis Center
11:10AM 45.5475 -91.1803 232° Southwest 226 260 16,000  Level Minneapolis Center
11:11AM 45.4983 -91.2689 232° Southwest 226 260 16,000  Level Minneapolis Center
11:12AM 45.4522 -91.3533 232° Southwest 225 259 16,000  Level Minneapolis Center
11:13AM 45.4122 -91.4217 230° Southwest 225 259 16,000  Level Minneapolis Center
11:14AM 45.3647 -91.5042 231° Southwest 226 260 16,000  Level Minneapolis Center
11:15AM 45.3278 -91.5739 233° Southwest 224 258 16,000 -60 Level Minneapolis Center
11:16AM 45.2897 -91.6408 231° Southwest 221 254 15,900  Descending Minneapolis Center
11:17AM 45.2511 -91.7086 231° Southwest 222 255 16,100 -540 Climbing Minneapolis Center
11:18AM 45.2178 -91.7775 236° Southwest 216 249 14,900 -1,320 Descending Minneapolis Center
11:19AM 45.1792 -91.8458 231° Southwest 221 254 13,400 -1,440 Descending Minneapolis Center
11:20AM 45.1336 -91.9189 229° Southwest 244 281 12,000 -1,500 Descending Minneapolis Center
11:21AM 45.0861 -92.0206 237° Southwest 260 299 10,300 -1,320 Descending Minneapolis Center
11:22AM 45.0728 -92.0981 256° West 256 295 9,400 -600 Descending Minneapolis Center
11:23AM 45.0556 -92.2131 258° West 249 287 9,100 -180 Descending Minneapolis Center
11:24AM 45.0417 -92.3097 259° West 251 289 9,100  Level Minneapolis Center
11:25AM 45.0317 -92.4092 262° West 256 295 9,100 -60 Level Minneapolis Center
11:27AM 45.0217 -92.5081 262° West 255 293 9,000 -60 Descending Minneapolis Center
11:28AM 45.0064 -92.6042 257° West 253 291 9,000  Level Minneapolis Center
11:29AM 44.9789 -92.7186 251° West 256 295 9,000  Level Minneapolis Center
11:30AM 44.9567 -92.8131 252° West 255 293 9,000 -180 Level Minneapolis Center
11:31AM 44.9419 -92.9111 258° West 256 295 8,700 -540 Descending Minneapolis Center
11:32AM 44.9356 -93.0072 265° West 250 288 8,000 -360 Descending Minneapolis Center
11:33AM 44.9519 -93.1008 284° West 262 302 8,000 -840 Level Minneapolis Center
11:34AM 44.9950 -93.2028 301° West 255 293 6,300 -1,740 Descending Minneapolis Center
11:35AM 45.0364 -93.2908 304° West 271 312 4,500 -1,140 Descending Minneapolis Center
11:36AM 45.0575 -93.3767 289° West 225 259 4,000 -240 Descending Minneapolis Center
11:37AM 45.0300 -93.4247 231° Southwest 184 212 4,100 -60 Climbing Minneapolis Center
11:38AM 44.9856 -93.4022 160° South 179 206 3,900 -540 Descending Minneapolis Center
11:39AM 44.9519 -93.3578 137° Southeast 174 200 3,100 -780 Descending Minneapolis Center
11:40AM 44.9306 -93.3081 121° Southeast 150 173 2,300 -840 Descending Minneapolis Center
11:41AM 44.9092 -93.2575 121° Southeast 126 145 1,500 -840 Descending Minneapolis Center
11:43AM 44.8820 -93.2218 225° Southwest  Level Estimated
11:50AM 44.8820 -93.2218 225° Southwest  Level Estimated